createdAt,value
2022-10-23T00:00:29.862Z,96740.16
2022-10-23T00:03:27.163Z,96734.31
2022-10-23T00:06:25.817Z,96740.59
2022-10-23T00:09:24.860Z,96738.72
2022-10-23T00:12:21.685Z,96736.06
2022-10-23T00:15:22.699Z,96732.59
2022-10-23T00:18:19.528Z,96735.50
2022-10-23T00:21:18.383Z,96736.53
2022-10-23T00:24:15.347Z,96731.47
2022-10-23T00:27:12.166Z,96741.97
2022-10-23T00:30:09.560Z,96738.97
2022-10-23T00:33:06.455Z,96739.72
2022-10-23T00:36:09.284Z,96745.84
2022-10-23T00:39:06.700Z,96741.75
2022-10-23T00:42:04.009Z,96742.59
2022-10-23T00:45:22.810Z,96751.41
2022-10-23T00:48:19.794Z,96744.31
2022-10-23T00:51:17.070Z,96735.75
2022-10-23T00:54:24.987Z,96734.56
2022-10-23T00:57:22.412Z,96730.09
2022-10-23T01:00:28.233Z,96729.16
2022-10-23T01:03:28.445Z,96732.66
2022-10-23T01:07:11.424Z,96735.66
2022-10-23T01:10:32.267Z,96735.00
2022-10-23T01:13:57.251Z,96735.84
2022-10-23T01:17:12.457Z,96744.00
2022-10-23T01:20:50.623Z,96733.34
2022-10-23T01:24:15.055Z,96730.22
2022-10-23T01:27:40.747Z,96737.22
2022-10-23T01:30:42.776Z,96728.09
2022-10-23T01:33:51.381Z,96733.56
2022-10-23T01:36:51.105Z,96735.53
2022-10-23T01:39:53.707Z,96739.72
2022-10-23T01:42:56.660Z,96733.19
2022-10-23T01:46:05.555Z,96735.00
2022-10-23T01:49:05.591Z,96716.88
2022-10-23T01:52:06.483Z,96719.81
2022-10-23T01:55:04.583Z,96701.34
2022-10-23T01:58:02.656Z,96698.22
2022-10-23T02:01:03.797Z,96696.75
2022-10-23T02:04:03.733Z,96695.03
2022-10-23T02:07:00.641Z,96678.84
2022-10-23T02:09:57.969Z,96674.91
2022-10-23T02:13:07.760Z,96672.56
2022-10-23T02:16:13.195Z,96671.06
2022-10-23T02:19:24.702Z,96672.06
2022-10-23T02:22:29.687Z,96679.41
2022-10-23T02:25:42.152Z,96672.97
2022-10-23T02:28:45.944Z,96677.13
2022-10-23T02:31:42.968Z,96681.53
2022-10-23T02:34:39.883Z,96678.38
2022-10-23T02:37:36.939Z,96683.44
2022-10-23T02:40:43.649Z,96684.59
2022-10-23T02:44:13.714Z,96694.56
2022-10-23T02:47:32.280Z,96695.75
2022-10-23T02:51:14.873Z,96692.00
2022-10-23T02:54:20.112Z,96692.72
2022-10-23T02:57:41.891Z,96702.16
2022-10-23T03:00:46.569Z,96694.13
2022-10-23T03:03:53.491Z,96688.72
2022-10-23T03:06:51.584Z,96685.88
2022-10-23T03:09:48.667Z,96684.09
2022-10-23T03:12:47.085Z,96680.78
2022-10-23T03:15:44.395Z,96671.06
2022-10-23T03:18:41.331Z,96664.78
2022-10-23T03:21:38.147Z,96664.22
2022-10-23T03:24:34.999Z,96662.00
2022-10-23T03:27:32.288Z,96667.41
2022-10-23T03:30:29.119Z,96671.38
2022-10-23T03:33:26.005Z,96676.03
2022-10-23T03:36:22.850Z,96677.63
2022-10-23T03:39:19.692Z,96663.69
2022-10-23T03:42:16.816Z,96667.13
2022-10-23T03:45:13.740Z,96671.00
2022-10-23T03:48:10.823Z,96679.78
2022-10-23T03:51:07.970Z,96677.09
2022-10-23T03:54:04.899Z,96665.97
2022-10-23T03:57:02.294Z,96665.78
2022-10-23T03:59:59.143Z,96672.88
2022-10-23T04:02:56.010Z,96666.66
2022-10-23T04:05:52.868Z,96675.47
2022-10-23T04:08:49.688Z,96671.28
2022-10-23T04:11:46.580Z,96679.53
2022-10-23T04:14:43.478Z,96663.81
2022-10-23T04:17:40.312Z,96671.78
2022-10-23T04:20:37.128Z,96672.06
2022-10-23T04:23:34.485Z,96668.59
2022-10-23T04:26:31.334Z,96667.03
2022-10-23T04:29:31.506Z,96671.38
2022-10-23T04:32:28.358Z,96669.69
2022-10-23T04:35:25.199Z,96670.38
2022-10-23T04:38:22.059Z,96676.19
2022-10-23T04:41:19.066Z,96680.06
2022-10-23T04:44:16.387Z,96674.53
2022-10-23T04:47:13.248Z,96668.63
2022-10-23T04:50:10.159Z,96682.44
2022-10-23T04:53:09.052Z,96666.47
2022-10-23T04:56:06.892Z,96652.16
2022-10-23T05:02:06.137Z,96662.97
2022-10-23T05:05:03.136Z,96668.28
2022-10-23T05:07:59.970Z,96649.31
2022-10-23T05:10:57.294Z,96659.34
2022-10-23T05:13:54.110Z,96659.13
2022-10-23T05:17:00.997Z,96655.38
2022-10-23T05:20:01.874Z,96652.81
2022-10-23T05:22:59.958Z,96662.63
2022-10-23T05:25:56.863Z,96661.88
2022-10-23T05:28:53.785Z,96663.69
2022-10-23T05:31:56.170Z,96658.44
2022-10-23T05:34:53.790Z,96656.56
2022-10-23T05:37:53.538Z,96656.00
2022-10-23T05:40:52.863Z,96657.34
2022-10-23T05:43:49.716Z,96656.13
2022-10-23T05:46:46.853Z,96661.44
2022-10-23T05:49:43.688Z,96651.56
2022-10-23T05:52:40.997Z,96649.91
2022-10-23T05:55:38.244Z,96639.34
2022-10-23T05:58:35.390Z,96639.03
2022-10-23T06:01:32.314Z,96648.31
2022-10-23T06:04:29.270Z,96650.47
2022-10-23T06:07:31.161Z,96651.91
2022-10-23T06:10:32.002Z,96648.28
2022-10-23T06:13:28.887Z,96647.19
2022-10-23T06:16:26.968Z,96637.53
2022-10-23T06:19:23.821Z,96640.69
2022-10-23T06:25:22.405Z,96652.03
2022-10-23T06:28:20.698Z,96654.38
2022-10-23T06:31:19.612Z,96657.63
2022-10-23T06:34:16.691Z,96661.03
2022-10-23T06:37:13.563Z,96661.91
2022-10-23T06:40:10.669Z,96657.44
2022-10-23T06:43:08.615Z,96658.34
2022-10-23T06:46:06.790Z,96661.19
2022-10-23T06:49:04.278Z,96652.91
2022-10-23T06:52:01.110Z,96645.97
2022-10-23T06:54:58.273Z,96657.25
2022-10-23T06:57:55.093Z,96654.00
2022-10-23T07:00:52.027Z,96643.06
2022-10-23T07:03:49.516Z,96645.09
2022-10-23T07:06:46.548Z,96649.13
2022-10-23T07:09:43.493Z,96650.88
2022-10-23T07:12:40.677Z,96651.34
2022-10-23T07:15:39.613Z,96646.16
2022-10-23T07:18:36.444Z,96655.38
2022-10-23T07:21:35.644Z,96653.09
2022-10-23T07:24:36.971Z,96661.44
2022-10-23T07:27:38.434Z,96656.25
2022-10-23T07:30:35.297Z,96652.72
2022-10-23T07:33:32.128Z,96650.19
2022-10-23T07:36:29.251Z,96643.84
2022-10-23T07:39:26.222Z,96632.22
2022-10-23T07:42:23.057Z,96624.19
2022-10-23T07:45:19.927Z,96623.22
2022-10-23T07:48:17.111Z,96630.13
2022-10-23T07:51:16.813Z,96637.63
2022-10-23T07:54:13.716Z,96636.06
2022-10-23T07:57:12.104Z,96627.97
2022-10-23T08:00:11.725Z,96631.94
2022-10-23T08:03:08.665Z,96619.75
2022-10-23T08:06:05.700Z,96613.72
2022-10-23T08:09:06.195Z,96613.53
2022-10-23T08:12:04.537Z,96601.63
2022-10-23T08:15:01.345Z,96605.28
2022-10-23T08:17:58.205Z,96591.44
2022-10-23T08:21:02.161Z,96592.44
2022-10-23T08:24:00.755Z,96587.66
2022-10-23T08:26:58.590Z,96579.41
2022-10-23T08:29:55.508Z,96586.97
2022-10-23T08:32:52.370Z,96600.22
2022-10-23T08:35:49.540Z,96588.22
2022-10-23T08:38:47.093Z,96584.03
2022-10-23T08:41:50.500Z,96588.38
2022-10-23T08:45:06.187Z,96586.78
2022-10-23T08:48:26.314Z,96582.75
2022-10-23T08:51:37.855Z,96576.78
2022-10-23T08:54:51.533Z,96569.31
2022-10-23T08:58:25.276Z,96560.72
2022-10-23T09:01:46.550Z,96557.41
2022-10-23T09:04:48.538Z,96553.56
2022-10-23T09:08:22.025Z,96542.38
2022-10-23T09:11:47.845Z,96555.78
2022-10-23T09:14:56.272Z,96567.47
2022-10-23T09:18:02.131Z,96559.63
2022-10-23T09:20:59.049Z,96554.66
2022-10-23T09:23:56.577Z,96532.19
2022-10-23T09:26:54.361Z,96542.91
2022-10-23T09:29:55.668Z,96528.97
2022-10-23T09:32:57.589Z,96526.28
2022-10-23T09:36:05.652Z,96531.47
2022-10-23T09:39:02.658Z,96523.53
2022-10-23T09:42:04.319Z,96533.44
2022-10-23T09:45:01.786Z,96515.69
2022-10-23T09:48:19.093Z,96506.75
2022-10-23T09:51:21.049Z,96510.50
2022-10-23T09:54:19.446Z,96502.09
2022-10-23T09:57:35.673Z,96513.19
2022-10-23T10:00:32.563Z,96515.72
2022-10-23T10:03:29.478Z,96517.47
2022-10-23T10:06:33.282Z,96528.41
2022-10-23T10:09:30.193Z,96520.22
2022-10-23T10:12:43.360Z,96513.25
2022-10-23T10:15:57.410Z,96513.44
2022-10-23T10:18:56.844Z,96510.31
2022-10-23T10:22:31.164Z,96517.19
2022-10-23T10:25:43.115Z,96498.88
2022-10-23T10:29:35.590Z,96491.34
2022-10-23T10:32:46.511Z,96480.09
2022-10-23T10:36:02.927Z,96468.47
2022-10-23T10:39:11.482Z,96462.13
2022-10-23T10:42:30.376Z,96459.41
2022-10-23T10:45:37.456Z,96457.16
2022-10-23T10:48:42.194Z,96457.72
2022-10-23T10:52:16.639Z,96459.72
2022-10-23T10:55:53.661Z,96454.63
2022-10-23T10:58:58.021Z,96450.03
2022-10-23T11:02:31.517Z,96438.53
2022-10-23T11:05:38.344Z,96446.44
2022-10-23T11:08:49.992Z,96445.34
2022-10-23T11:11:56.071Z,96444.31
2022-10-23T11:14:53.091Z,96444.88
2022-10-23T11:17:59.570Z,96442.59
2022-10-23T11:21:24.099Z,96435.19
2022-10-23T11:24:51.527Z,96409.44
2022-10-23T11:28:33.262Z,96402.13
2022-10-23T11:31:45.550Z,96395.00
2022-10-23T11:35:06.971Z,96396.44
2022-10-23T11:38:18.155Z,96383.03
2022-10-23T11:41:27.050Z,96376.75
2022-10-23T11:44:47.513Z,96385.19
2022-10-23T11:47:44.304Z,96380.34
2022-10-23T11:50:44.185Z,96373.06
2022-10-23T11:53:41.099Z,96384.03
2022-10-23T11:57:10.723Z,96370.13
2022-10-23T12:00:24.210Z,96369.00
2022-10-23T12:04:02.503Z,96370.72
2022-10-23T12:07:05.292Z,96355.75
2022-10-23T12:10:36.884Z,96353.88
2022-10-23T12:13:39.472Z,96348.22
2022-10-23T12:16:36.576Z,96344.94
2022-10-23T12:19:52.291Z,96327.38
2022-10-23T12:23:20.291Z,96325.63
2022-10-23T12:26:17.004Z,96332.84
2022-10-23T12:29:41.899Z,96334.44
2022-10-23T12:33:09.832Z,96330.69
2022-10-23T12:36:50.181Z,96324.81
2022-10-23T12:39:54.618Z,96306.13
2022-10-23T12:42:56.335Z,96316.00
2022-10-23T12:45:54.704Z,96324.56
2022-10-23T12:48:54.009Z,96307.41
2022-10-23T12:52:05.156Z,96291.81
2022-10-23T12:55:14.252Z,96293.94
2022-10-23T12:58:30.015Z,96295.78
2022-10-23T13:01:29.420Z,96293.22
2022-10-23T13:04:28.898Z,96307.63
2022-10-23T13:07:29.258Z,96308.13
2022-10-23T13:10:26.852Z,96306.66
2022-10-23T13:13:25.001Z,96299.47
2022-10-23T13:16:24.923Z,96304.50
2022-10-23T13:19:26.960Z,96295.16
2022-10-23T13:22:24.564Z,96277.06
2022-10-23T13:25:32.442Z,96265.56
2022-10-23T13:28:35.105Z,96264.19
2022-10-23T13:31:35.619Z,96269.03
2022-10-23T13:34:32.450Z,96273.13
2022-10-23T13:37:30.417Z,96276.47
2022-10-23T13:40:28.185Z,96278.59
2022-10-23T13:43:27.010Z,96269.50
2022-10-23T13:46:25.737Z,96271.78
2022-10-23T13:49:22.604Z,96253.41
2022-10-23T13:52:23.446Z,96244.78
2022-10-23T13:55:29.339Z,96238.47
2022-10-23T13:58:26.164Z,96238.19
2022-10-23T14:01:32.373Z,96224.28
2022-10-23T14:04:29.456Z,96249.28
2022-10-23T14:07:26.650Z,96241.53
2022-10-23T14:10:25.714Z,96239.63
2022-10-23T14:13:24.589Z,96238.19
2022-10-23T14:16:21.748Z,96229.59
2022-10-23T14:19:18.606Z,96230.53
2022-10-23T14:22:15.491Z,96240.41
2022-10-23T14:25:12.431Z,96242.09
2022-10-23T14:28:09.337Z,96236.53
2022-10-23T14:31:09.613Z,96236.53
2022-10-23T14:34:06.664Z,96232.78
2022-10-23T14:37:08.891Z,96212.06
2022-10-23T14:40:07.084Z,96213.19
2022-10-23T14:43:04.466Z,96211.13
2022-10-23T14:46:10.538Z,96203.28
2022-10-23T14:49:07.588Z,96203.44
2022-10-23T14:52:06.077Z,96198.50
2022-10-23T14:55:06.330Z,96203.00
2022-10-23T14:58:03.255Z,96191.69
2022-10-23T15:01:01.675Z,96204.81
2022-10-23T15:03:58.770Z,96206.09
2022-10-23T15:06:55.628Z,96199.22
2022-10-23T15:09:52.451Z,96199.03
2022-10-23T15:12:49.312Z,96194.03
2022-10-23T15:15:46.406Z,96187.31
2022-10-23T15:18:43.572Z,96186.16
2022-10-23T15:21:40.412Z,96177.31
2022-10-23T15:24:37.252Z,96173.75
2022-10-23T15:27:34.756Z,96175.19
2022-10-23T15:30:31.644Z,96175.09
2022-10-23T15:33:28.675Z,96164.88
2022-10-23T15:36:26.702Z,96159.94
2022-10-23T15:39:27.623Z,96154.31
2022-10-23T15:42:24.542Z,96166.88
2022-10-23T15:45:21.516Z,96153.50
2022-10-23T15:48:18.445Z,96148.03
2022-10-23T15:51:15.350Z,96140.03
2022-10-23T15:54:19.072Z,96144.41
2022-10-23T15:57:15.962Z,96162.41
2022-10-23T16:00:18.161Z,96163.03
2022-10-23T16:03:16.500Z,96165.25
2022-10-23T16:06:15.874Z,96156.84
2022-10-23T16:09:13.425Z,96148.88
2022-10-23T16:12:10.377Z,96146.09
2022-10-23T16:15:08.261Z,96137.56
2022-10-23T16:18:05.432Z,96134.59
2022-10-23T16:21:02.355Z,96137.84
2022-10-23T16:24:01.858Z,96130.25
2022-10-23T16:26:59.268Z,96118.50
2022-10-23T16:29:56.184Z,96118.94
2022-10-23T16:32:54.824Z,96117.03
2022-10-23T16:35:51.669Z,96117.03
2022-10-23T16:38:48.595Z,96107.31
2022-10-23T16:41:45.503Z,96118.31
2022-10-23T16:44:42.356Z,96117.00
2022-10-23T16:47:39.192Z,96132.72
2022-10-23T16:53:44.451Z,96121.25
2022-10-23T16:56:41.666Z,96115.22
2022-10-23T16:59:38.683Z,96101.91
2022-10-23T17:02:36.570Z,96113.22
2022-10-23T17:05:34.986Z,96105.16
2022-10-23T17:08:32.383Z,96106.06
2022-10-23T17:11:35.755Z,96112.00
2022-10-23T17:14:32.721Z,96099.34
2022-10-23T17:17:29.580Z,96114.59
2022-10-23T17:20:26.410Z,96128.75
2022-10-23T17:23:23.324Z,96109.53
2022-10-23T17:26:22.065Z,96118.53
2022-10-23T17:29:19.037Z,96113.69
2022-10-23T17:32:16.063Z,96122.91
2022-10-23T17:35:13.173Z,96126.47
2022-10-23T17:38:10.072Z,96124.81
2022-10-23T17:41:08.323Z,96114.94
2022-10-23T17:44:05.260Z,96117.97
2022-10-23T17:47:02.202Z,96117.97
2022-10-23T17:49:59.084Z,96101.91
2022-10-23T17:52:55.902Z,96108.53
2022-10-23T17:55:52.772Z,96098.19
2022-10-23T17:58:51.624Z,96101.13
2022-10-23T18:01:49.516Z,96090.88
2022-10-23T18:04:46.508Z,96081.38
2022-10-23T18:07:43.685Z,96076.56
2022-10-23T18:10:40.720Z,96076.63
2022-10-23T18:13:37.832Z,96057.50
2022-10-23T18:16:37.191Z,96039.84
2022-10-23T18:19:34.263Z,96043.34
2022-10-23T18:22:33.156Z,96040.44
2022-10-23T18:25:30.066Z,96017.56
2022-10-23T18:28:28.526Z,96013.31
2022-10-23T18:31:30.331Z,96017.06
2022-10-23T18:34:27.197Z,96030.16
2022-10-23T18:37:26.788Z,96018.63
2022-10-23T18:40:27.979Z,96017.28
2022-10-23T18:43:42.477Z,96016.59
2022-10-23T18:46:40.468Z,95999.91
2022-10-23T18:49:37.288Z,95987.16
2022-10-23T18:52:34.273Z,95995.00
2022-10-23T18:55:31.254Z,95993.66
2022-10-23T18:58:28.160Z,95992.03
2022-10-23T19:01:27.220Z,95994.47
2022-10-23T19:04:24.315Z,96006.44
2022-10-23T19:07:21.703Z,96006.13
2022-10-23T19:10:20.854Z,96009.69
2022-10-23T19:13:17.676Z,96026.41
2022-10-23T19:16:52.999Z,96028.31
2022-10-23T19:20:01.785Z,96037.31
2022-10-23T19:23:00.398Z,96046.28
2022-10-23T19:25:57.549Z,96041.41
2022-10-23T19:28:54.380Z,96062.69
2022-10-23T19:31:51.716Z,96048.16
2022-10-23T19:34:48.614Z,96062.59
2022-10-23T19:37:46.177Z,96075.16
2022-10-23T19:40:43.244Z,96077.84
2022-10-23T19:43:40.061Z,96077.38
2022-10-23T19:46:37.887Z,96128.72
2022-10-23T19:49:34.731Z,96121.91
2022-10-23T19:52:31.619Z,96164.03
2022-10-23T19:55:28.503Z,96190.78
2022-10-23T19:58:25.440Z,96194.84
2022-10-23T20:01:25.485Z,96196.47
2022-10-23T20:04:22.423Z,96207.88
2022-10-23T20:07:19.302Z,96199.56
2022-10-23T20:10:16.475Z,96208.09
2022-10-23T20:13:19.786Z,96216.63
2022-10-23T20:16:24.234Z,96213.66
2022-10-23T20:19:21.070Z,96219.81
2022-10-23T20:22:18.341Z,96209.38
2022-10-23T20:25:15.230Z,96202.78
2022-10-23T20:28:14.389Z,96201.59
2022-10-23T20:31:14.016Z,96187.34
2022-10-23T20:34:12.169Z,96188.47
2022-10-23T20:37:09.219Z,96184.19
2022-10-23T20:40:06.854Z,96187.34
2022-10-23T20:43:04.297Z,96195.06
2022-10-23T20:46:09.299Z,96196.34
2022-10-23T20:49:06.168Z,96188.78
2022-10-23T20:52:03.136Z,96207.13
2022-10-23T20:54:59.946Z,96216.88
2022-10-23T20:57:56.803Z,96219.59
2022-10-23T21:00:53.610Z,96222.00
2022-10-23T21:03:58.462Z,96214.69
2022-10-23T21:07:09.367Z,96217.28
2022-10-23T21:10:07.787Z,96209.25
2022-10-23T21:13:04.606Z,96204.22
2022-10-23T21:16:10.770Z,96196.81
2022-10-23T21:19:10.299Z,96205.34
2022-10-23T21:22:07.144Z,96200.00
2022-10-23T21:25:04.381Z,96194.19
2022-10-23T21:28:01.191Z,96194.97
2022-10-23T21:31:08.089Z,96199.38
2022-10-23T21:34:05.740Z,96204.59
2022-10-23T21:37:18.131Z,96213.28
2022-10-23T21:40:15.138Z,96234.09
2022-10-23T21:43:11.994Z,96221.03
2022-10-23T21:46:16.924Z,96222.28
2022-10-23T21:49:13.793Z,96209.50
2022-10-23T21:52:10.690Z,96203.34
2022-10-23T21:55:08.118Z,96202.81
2022-10-23T21:58:04.950Z,96213.56
2022-10-23T22:01:01.912Z,96199.53
2022-10-23T22:03:58.795Z,96191.00
2022-10-23T22:06:55.671Z,96196.69
2022-10-23T22:09:52.496Z,96202.72
2022-10-23T22:12:49.302Z,96184.56
2022-10-23T22:15:46.120Z,96179.53
2022-10-23T22:18:44.030Z,96188.16
2022-10-23T22:21:41.789Z,96183.44
2022-10-23T22:24:38.631Z,96192.63
2022-10-23T22:27:38.237Z,96187.06
2022-10-23T22:30:37.969Z,96194.00
2022-10-23T22:33:34.788Z,96188.84
2022-10-23T22:36:31.662Z,96190.25
2022-10-23T22:39:28.499Z,96183.13
2022-10-23T22:42:25.377Z,96183.78
2022-10-23T22:45:22.191Z,96177.78
2022-10-23T22:48:19.023Z,96186.16
2022-10-23T22:51:20.268Z,96185.53
2022-10-23T22:54:17.130Z,96185.06
2022-10-23T22:57:14.058Z,96190.09
2022-10-23T23:00:11.730Z,96193.09
2022-10-23T23:03:08.626Z,96190.88
2022-10-23T23:06:07.460Z,96188.84
2022-10-23T23:09:04.533Z,96186.31
2022-10-23T23:12:01.440Z,96193.75
2022-10-23T23:15:00.252Z,96202.25
2022-10-23T23:17:57.439Z,96198.47
2022-10-23T23:20:54.306Z,96202.56
2022-10-23T23:23:51.209Z,96196.22
2022-10-23T23:26:48.032Z,96221.50
2022-10-23T23:29:44.874Z,96219.59
2022-10-23T23:32:41.987Z,96224.16
2022-10-23T23:35:44.628Z,96223.34
2022-10-23T23:38:41.994Z,96214.91
2022-10-23T23:41:38.979Z,96200.50
2022-10-23T23:44:41.954Z,96200.81
2022-10-23T23:47:47.420Z,96199.16
2022-10-23T23:50:44.513Z,96183.75
2022-10-23T23:53:41.386Z,96200.31
2022-10-23T23:56:38.308Z,96189.84
2022-10-23T23:59:40.389Z,96185.75
